This is the latest recevied weather packets stored in our database for station/object KJ4HF. If no packets are shown the sender has not sent any weather packets the latest 10 day(s).
| Time | Temp. | Humidity | Pressure | Rain* | Wind** | Luminosity | Snow |
|---|---|---|---|---|---|---|---|
| 1778028942 | 19.44° C | 52% | 1013.9 hPa | 0 mm | - | 0 W/m² | - |
| 1778028350 | 20° C | 50% | 1013.8 hPa | 0 mm | - | 0 W/m² | - |
| 1778026552 | 22.22° C | 44% | 1013.7 hPa | 0 mm | - | 0 W/m² | - |
| 1778026243 | 22.22° C | 43% | 1013.7 hPa | 0 mm | - | 0 W/m² | - |
| 1778025042 | 22.78° C | 42% | 1013.6 hPa | 0 mm | - | 11 W/m² | - |
| 1778024751 | 23.33° C | 42% | 1013.6 hPa | 0 mm | - | 12 W/m² | - |
| 1778023856 | 23.33° C | 41% | 1013.4 hPa | 0 mm | - | 42 W/m² | - |
| 1778019941 | 25° C | 35% | 1013.6 hPa | 0 mm | - | 98 W/m² | - |
| 1778017553 | 25.56° C | 35% | 1013.7 hPa | 0 mm | - | 457 W/m² | - |
| 1778016943 | 25.56° C | 35% | 1013.6 hPa | 0 mm | - | 193 W/m² | - |
| 1778016652 | 26.11° C | 35% | 1013.8 hPa | 0 mm | - | 230 W/m² | - |
| 1778016342 | 26.11° C | 35% | 1013.7 hPa | 0 mm | - | 454 W/m² | - |
| 1778014853 | 26.11° C | 35% | 1013.8 hPa | 0 mm | - | 629 W/m² | - |
| 1778013649 | 26.11° C | 35% | 1013.9 hPa | 0 mm | - | 673 W/m² | - |
| 1778013347 | 25.56° C | 36% | 1014 hPa | 0 mm | - | 640 W/m² | - |
| 1778013051 | 25.56° C | 36% | 1014 hPa | 0 mm | - | 206 W/m² | - |
| 1778009743 | 26.11° C | 36% | 1014.5 hPa | 0 mm | - | 840 W/m² | - |
| 1778006441 | 25.56° C | 37% | 1015.6 hPa | 0 mm | - | 833 W/m² | - |
| 1778005851 | 25° C | 35% | 1016 hPa | 0 mm | - | 373 W/m² | - |
| 1778004051 | 26.11° C | 35% | 1016.1 hPa | 0 mm | - | 1020 W/m² | - |
| 1778003743 | 26.11° C | 39% | 1015.9 hPa | 0 mm | - | 1014 W/m² | - |
| 1778003152 | 26.11° C | 35% | 1016 hPa | 0 mm | - | 1014 W/m² | - |
| 1778001943 | 25.56° C | 37% | 1016 hPa | 0 mm | - | 946 W/m² | - |
| 1777999557 | 25° C | 40% | 1016.4 hPa | 0 mm | - | 803 W/m² | - |
| 1777996543 | 23.89° C | 47% | 1016.8 hPa | 0 mm | - | 879 W/m² | - |
* Rain latest hour (hover to see other rain measurements)
** Current wind speed in m/s (hover to see current wind gust speed)